Wednesday, September 20, 2017, 8:35 PM CDT
Back to Local

KHDC, Hammond, Hammond Municipal Airport

Location: Hammond, LA, United States Lat: 30.521
Local Time: 8:35 PM CDT ( 1:35 GMT) Lon: -90.418
Time Zone: US/Central Elev: 42 ft

Show me the last for .
Show Coded

Time T Td Feel RH Dir Speed Gust Alt SLP Vis Weather Sky Remarks
2017-09-20 20:15 77 70 81 78 240° 3 - 29.99 - 10 CLR None
2017-09-20 19:55 77 70 81 78 - Calm - 29.99 - 10 CLR None
2017-09-20 19:35 77 70 81 78 - Calm - 29.99 - 10 CLR None
2017-09-20 19:15 77 70 81 78 - Calm - 29.98 - 10 CLR None
2017-09-20 18:55 77 68 80 73 160° 3 - 29.98 - 10 CLR None
2017-09-20 18:35 79 68 82 69 200° 5 - 29.98 - 10 CLR None
2017-09-20 18:15 79 68 82 69 180° 7 - 29.97 - 10 CLR None
2017-09-20 17:55 81 68 84 65 220° 10 - 29.97 - 10 CLR None
2017-09-20 17:35 82 70 87 65 200° 12 17 29.96 - 10 CLR None
2017-09-20 17:15 84 73 91 70 170° 5 - 29.95 - 10 SCT045 None
2017-09-20 16:55 84 72 90 66 160° 3 - 29.95 - 10 VCTS BKN045 None
2017-09-20 16:35 84 70 89 62 150° 5 - 29.96 - 10 VCTS SCT035 SCT043 BKN120 None
2017-09-20 16:15 86 70 91 58 140° 5 - 29.95 - 10 VCTSRA -SCT039 BKN060 OVC110 None
2017-09-20 15:55 88 68 92 52 140° 5 - 29.96 - 10 BKN039 BKN047 None
2017-09-20 15:35 88 68 92 52 90° 3 - 29.97 - 10 SCT039 SCT049 None
2017-09-20 15:15 90 68 94 49 90° 3 - 29.97 - 10 SCT041 None
2017-09-20 14:55 90 70 96 52 10° 5 - 29.97 - 10 OVC041 None
2017-09-20 14:35 90 68 94 49 10° 5 - 29.98 - 10 OVC039 None
2017-09-20 14:15 90 68 94 49 120° 3 - 29.98 - 10 SCT041 None
2017-09-20 13:55 90 68 94 49 230° 3 - 29.99 - 10 CLR None
2017-09-20 13:35 90 68 94 49 - Calm - 30.00 - 10 SCT038 SCT046 None
2017-09-20 13:15 91 68 97 46 280° 5 - 30.01 - 10 BKN038 None
2017-09-20 12:55 90 68 94 49 160° 6 - 30.02 - 10 BKN036 None
2017-09-20 12:35 90 68 94 49 140° 3 - 30.02 - 10 BKN034 OVC041 None
2017-09-20 12:15 90 70 96 52 280° 3 - 30.02 - 10 BKN032 BKN041 OVC050 None
2017-09-20 11:55 90 70 96 52 150° 3 - 30.03 - 10 SCT032 SCT039 None
2017-09-20 11:35 86 70 91 58 150° 3 - 30.03 - 10 SCT036 None
2017-09-20 11:15 86 70 91 58 - Calm - 30.03 - 10 SCT023 SCT028 SCT036 None
2017-09-20 10:55 86 70 91 58 210° 6 - 30.03 - 10 SCT023 SCT028 None
2017-09-20 10:35 86 72 92 62 220° 5 - 30.03 - 10 SCT019 SCT028 SCT033 None
2017-09-20 10:15 84 72 90 66 230° 6 - 30.03 - 10 BKN017 None
2017-09-20 09:55 84 73 91 70 210° 5 - 30.03 - 10 BKN015 None
2017-09-20 09:35 82 73 89 74 - Calm - 30.03 - 10 CLR None
2017-09-20 09:15 81 73 86 78 - Calm - 30.03 - 10 CLR None
2017-09-20 08:55 79 73 84 83 - Calm - 30.02 - 10 CLR None
2017-09-20 08:35 77 72 81 83 - Calm - 30.01 - 7 CLR None
2017-09-20 08:15 75 72 79 88 - Calm - 30.01 - 7 CLR None
2017-09-20 07:55 73 70 77 88 - Calm - 30.01 - 7 CLR None
2017-09-20 07:35 72 70 76 94 - Calm - 30.00 - 7 CLR None
2017-09-20 07:15 72 70 76 94 - Calm - 30.00 - 7 CLR None
2017-09-20 06:55 72 70 76 94 - Calm - 29.99 - 7 CLR None
2017-09-20 06:35 72 68 76 88 - Calm - 29.98 - 5 BR CLR None
2017-09-20 06:15 72 70 76 94 - Calm - 29.98 - 7 CLR None
2017-09-20 05:55 72 70 76 94 - Calm - 29.97 - 10 CLR None
2017-09-20 05:35 72 70 76 94 - Calm - 29.97 - 10 CLR None
2017-09-20 05:15 72 70 76 94 - Calm - 29.96 - 10 CLR None
2017-09-20 04:55 72 70 76 94 - Calm - 29.96 - 10 CLR None
2017-09-20 04:35 72 70 76 94 - Calm - 29.97 - 7 CLR None
2017-09-20 04:15 73 70 77 88 - Calm - 29.96 - 7 CLR None
2017-09-20 03:55 73 70 77 88 - Calm - 29.96 - 10 CLR None
2017-09-20 03:35 73 70 77 88 - Calm - 29.96 - 7 CLR None
2017-09-20 03:15 73 70 77 88 - Calm - 29.96 - 10 CLR None
2017-09-20 02:55 73 70 77 88 - Calm - 29.96 - 10 CLR None
2017-09-20 02:35 73 72 78 94 - Calm - 29.96 - 10 CLR None
2017-09-20 02:15 73 72 78 94 - Calm - 29.96 - 10 CLR None
2017-09-20 01:55 75 70 79 83 - Calm - 29.97 - 10 CLR None
2017-09-20 01:35 77 72 81 83 - Calm - 29.96 - 10 CLR None
2017-09-20 01:15 77 72 81 83 - Calm - 29.97 - 10 CLR None
2017-09-20 00:55 77 72 81 83 - Calm - 29.97 - 10 CLR None
2017-09-20 00:35 77 72 81 83 - Calm - 29.98 - 10 CLR None
2017-09-20 00:15 77 72 81 83 - Calm - 29.98 - 10 SCT110 None
2017-09-19 23:55 77 72 81 83 - Calm - 29.98 - 10 CLR None
2017-09-19 23:35 77 72 81 83 230° 3 - 29.98 - 10 CLR None
2017-09-19 23:15 77 72 81 83 170° 3 - 29.98 - 10 CLR None
2017-09-19 22:55 77 72 81 83 - Calm - 29.97 - 10 CLR None
2017-09-19 22:35 79 72 83 78 230° 3 - 29.97 - 10 CLR None
2017-09-19 22:15 77 72 81 83 - Calm - 29.96 - 10 SCT046 None
2017-09-19 21:55 79 72 83 78 - Calm - 29.95 - 10 CLR None
2017-09-19 21:35 79 72 83 78 - Calm - 29.95 - 10 CLR None
2017-09-19 21:15 79 72 83 78 - Calm - 29.94 - 10 CLR None
2017-09-19 20:55 79 72 83 78 - Calm - 29.93 - 10 CLR None

Support USWX by starting your Amazon purchase here.